Acton, Indiana
Current Conditions -  °F | °C
As of 5:53 AM on Thursday 27 Nov 2014 (Local Time) from KGEZ Reporting Station
Overcast Overcast  
Wind Chill: 21°   Ceiling: 2500
Heat Index: 29°   Visibility: 10mi
Dew Point: 21°   Wind: 8mph
Humidity: 72%   Direction: 320°NW
Pressure: 30.18"   Gusts: NA
Location:  39.6613°N, 85.9949°W
Report Text: KGEZ 271053Z AUTO 32007KT 10SM OVC025 M02/M06 A3018 RMK AO2 SLP230 T10171061
Loading
Personal Weather Stations






























Interactive Weather Map New forecast layout! Learn more

10-Day Weather Forecast

Advertisements
Track Severe Weather on mobile